עמוד ראשי
METAR-TAF:

METAR-TAF

שדות תעופה :

Puerto Peñasco, מקסיקו

קו רוחב: 31-21-07N, קו אורך: 113-18-20W, גובה: 22מטר

תצפית מזג אוויר נוכחית

הדו"ח נערך לפני 13 שעות ו 23דקות, בשעה 23:40 UTC
רוח 11קשר מכיוון דרום-מערב
טמפרטורת 36 צלסיוס
לחות 42%
לחץ 1012 hPa
ראות: 16.1קילומטר
שמיים נקיים

METAR: MMPE 242340Z 22011KT 10SM SKC 36/21 A2989 RMK DSNT CB NE

זמן: 06:03 (13:03 UTC)


TAF: חסר

תצפיות ותחזיות מזג אוויר לגבי יותר מ- 4,000 שדות תעופה ברחבי העולם. דוחות METAR ו- TAF.

התחנות הזמינות מסומנות בנקודות צהובות ואדומות על גבי המפה.

העבר את העכבר לנקודה הצבעונית על מנת לראות את שם התחנה.

לאחר מכן, לחץ כדי לראות את תוכן ואת תחזיות מזג האוויר.

כדי לשנות את המפה: לחץ על הכפתורים הירוקים עם הפלוס השחור כדי להתקרב; על הכפתור הירוק עם המקף כדי להתרחק; או בחיצים הירוקים למפות סמוכות.


METAR-TAF: